Portada
METAR-TAF:

METAR-TAF

Aeroports :

San Salvador, El Salvador

latitud: 13-42N, longitud: 089-07W, altitud: 616 m

Observació

L'informe es va fer fa 49 minuts, a les 16:50 UTC
Vent 13 kt del Nord/Nord-Oest
Temperatura 27°C
Humitat 51%
Pressió 1019 hPa
Visibilitat 10 km o més
sense núvols per sota de 1500 mi sense presència de cumulonimbus.

METAR: MSSS 211650Z 34013KT CAVOK 27/16 Q1019 A3009

Hora: 11:39 (17:39 UTC)

Pronòstic

L'informe es va fer fa 2 hores i 14 minuts, a les 15:25 UTC
Pronòstic vàlid del 21 a les 18 UTC al 22 a les 18 UTC
Vent 10 kt del Nord amb ràfegues de 20 kt
Visibilitat 10 km o més
sense núvols per sota de 1500 mi sense presència de cumulonimbus.

TAF: MSSS 211525Z 2118/2218 35010G20KT CAVOK TX32/2120Z TN20/2212Z

Observacions i pronòstics meteorològics de més de 4000 aeroports (METAR i TAF).

Les estacions disponibles són els punts grocs i vermells al mapa.

Posi el ratolí al punt desitjat per veure el nom de l'estació.

Feu clic per veure les observacions i els pronòstics meteorològics.

Per canviar el mapa: feu clic els botons verds amb una creu de color negre per apropar; al botó verd amb un guió per allunyar la imatge; o en les fletxes verdes per a mapes adjacents.


METAR-TAF: